Time;durP1;ratioP1;P1;durP2;ratioP2;P2;SDS_P1;SDS_P2;PMS_P1;PMS_P2;Temp;Humidity;BMP_temperature;BMP_pressure;BME280_temperature;BME280_humidity;BME280_pressure;Samples;Min_cycle;Max_cycle;Signal;HPM_P1;HPM_P2
2022/11/21 00:00:47;;;;;;;2.58;0.40;;;4.70;99.90;;;3.99;100.00;96486.16;5033062;28;20029;-61
2022/11/21 00:03:13;;;;;;;1.75;0.40;;;4.80;99.90;;;4.01;100.00;96480.00;5036317;28;20032;-62
2022/11/21 00:05:42;;;;;;;0.47;0.30;;;4.80;99.90;;;4.05;100.00;96469.50;5034627;28;20044;-62
2022/11/21 00:08:10;;;;;;;0.50;0.30;;;4.80;99.90;;;4.07;100.00;96468.53;5035087;28;20067;-61
2022/11/21 00:10:38;;;;;;;1.13;0.50;;;4.90;99.90;;;4.03;100.00;96443.44;5034802;28;20093;-62
2022/11/21 00:13:04;;;;;;;1.77;0.40;;;4.90;99.90;;;4.23;100.00;96469.00;5033474;28;20021;-61
2022/11/21 00:15:30;;;;;;;1.30;0.40;;;5.00;99.90;;;4.19;100.00;96455.19;5037528;28;20033;-62
2022/11/21 00:17:56;;;;;;;1.27;0.40;;;5.00;99.90;;;4.20;100.00;96464.72;5031979;28;20551;-61
2022/11/21 00:20:22;;;;;;;0.47;0.28;;;5.00;99.90;;;4.16;100.00;96450.06;5035477;28;20126;-61
2022/11/21 00:22:48;;;;;;;0.38;0.22;;;5.00;99.90;;;4.10;100.00;96446.75;5032426;28;20058;-62
2022/11/21 00:25:14;;;;;;;3.03;0.40;;;5.00;99.90;;;4.10;100.00;96449.34;5032815;28;20079;-62
2022/11/21 00:27:41;;;;;;;1.08;0.32;;;4.90;99.90;;;4.06;100.00;96437.31;5017958;28;20238;-61
2022/11/21 00:30:09;;;;;;;2.20;0.45;;;4.90;99.90;;;4.05;100.00;96443.41;5022758;28;20032;-61
2022/11/21 00:32:35;;;;;;;1.00;0.50;;;4.90;99.90;;;4.06;100.00;96445.97;5019387;28;20151;-62
2022/11/21 00:35:01;;;;;;;0.75;0.20;;;4.90;99.90;;;4.04;100.00;96436.47;5020754;28;20268;-61
2022/11/21 00:37:26;;;;;;;1.85;0.47;;;4.80;99.90;;;3.94;100.00;96428.88;5021068;28;20139;-62
2022/11/21 00:39:52;;;;;;;0.45;0.32;;;4.80;99.90;;;3.86;100.00;96429.97;5018651;28;20069;-62
2022/11/21 00:42:18;;;;;;;1.30;0.40;;;4.70;99.90;;;3.78;100.00;96427.56;5024240;28;20504;-61
2022/11/21 00:44:43;;;;;;;1.45;0.20;;;4.60;99.90;;;3.73;100.00;96417.28;5018752;28;20163;-62
2022/11/21 00:47:09;;;;;;;0.68;0.20;;;4.50;99.90;;;3.70;100.00;96416.50;5019582;28;20749;-62
2022/11/21 00:49:35;;;;;;;0.73;0.20;;;4.50;99.90;;;3.60;100.00;96421.91;5018506;28;20029;-62
2022/11/21 00:52:01;;;;;;;0.65;0.20;;;4.40;99.90;;;3.46;100.00;96418.78;5019435;28;20025;-62
2022/11/21 00:54:26;;;;;;;0.90;0.30;;;4.30;99.90;;;3.35;100.00;96416.44;5018964;28;20040;-62
2022/11/21 00:56:52;;;;;;;2.35;0.28;;;4.20;99.90;;;3.24;100.00;96410.66;5021551;28;20152;-62
2022/11/21 00:59:18;;;;;;;0.57;0.30;;;4.10;99.90;;;3.12;100.00;96403.97;5022553;28;20098;-61
2022/11/21 01:01:43;;;;;;;0.35;0.20;;;4.00;99.90;;;3.03;100.00;96398.97;5014125;28;20028;-62
2022/11/21 01:04:09;;;;;;;1.05;0.22;;;3.90;99.90;;;3.04;100.00;96416.31;5021520;28;20879;-62
2022/11/21 01:06:37;;;;;;;0.60;0.20;;;3.90;99.90;;;3.06;100.00;96418.00;5023469;28;20036;-61
2022/11/21 01:09:03;;;;;;;1.50;0.20;;;3.90;99.90;;;3.16;100.00;96408.22;5027696;28;20037;-62
2022/11/21 01:11:28;;;;;;;1.33;0.25;;;4.00;99.90;;;3.23;100.00;96409.81;5028757;28;20468;-61
2022/11/21 01:13:54;;;;;;;1.77;0.38;;;4.10;99.90;;;3.28;100.00;96422.69;5027070;28;20863;-62
2022/11/21 01:16:24;;;;;;;0.75;0.40;;;4.10;99.90;;;3.37;100.00;96419.88;5028801;28;20401;-61
2022/11/21 01:18:50;;;;;;;0.32;0.20;;;4.20;99.90;;;3.45;100.00;96411.88;5015385;28;20037;-62
2022/11/21 01:21:29;;;;;;;0.28;0.20;;;4.30;99.90;;;3.49;100.00;96408.31;5023703;28;20039;-62
2022/11/21 01:23:55;;;;;;;0.80;0.35;;;4.30;99.90;;;3.53;100.00;96407.31;5019658;28;20408;-62
2022/11/21 01:26:24;;;;;;;2.88;0.40;;;4.30;99.90;;;3.54;100.00;96396.00;5023012;28;20103;-61
2022/11/21 01:28:50;;;;;;;2.25;0.38;;;4.40;99.90;;;3.57;100.00;96395.06;5018944;28;20102;-62
2022/11/21 01:31:25;;;;;;;1.67;0.40;;;4.40;99.90;;;3.55;100.00;96396.84;5019964;28;20409;-63
2022/11/21 01:33:51;;;;;;;1.45;0.40;;;4.40;99.90;;;3.55;100.00;96397.75;5012814;28;20041;-62
2022/11/21 01:36:21;;;;;;;1.30;0.50;;;4.40;99.90;;;3.60;100.00;96406.28;5022945;28;20053;-61
2022/11/21 01:38:50;;;;;;;0.90;0.40;;;4.40;99.90;;;3.60;100.00;96410.63;5014273;28;20067;-60
2022/11/21 01:41:28;;;;;;;0.95;0.35;;;4.40;99.90;;;3.59;100.00;96401.13;5022712;28;20192;-62
2022/11/21 01:43:54;;;;;;;0.90;0.40;;;4.50;99.90;;;3.50;100.00;96388.28;5017501;28;20036;-62
2022/11/21 01:46:21;;;;;;;1.73;0.45;;;4.40;99.90;;;3.45;100.00;96396.25;5023187;28;20965;-61
2022/11/21 01:49:03;;;;;;;3.70;0.60;;;4.30;99.90;;;3.40;100.00;96398.09;5016829;28;20272;-62
2022/11/21 01:52:08;;;;;;;1.35;0.60;;;4.30;99.90;;;3.39;100.00;96391.16;5020816;28;20047;-62
2022/11/21 01:54:57;;;;;;;0.90;0.40;;;4.20;99.90;;;3.34;100.00;96386.09;5030315;28;20128;-62
2022/11/21 01:57:33;;;;;;;0.88;0.40;;;4.20;99.90;;;3.29;100.00;96379.28;5025974;28;20102;-61
2022/11/21 02:00:08;;;;;;;1.83;0.45;;;4.20;99.90;;;3.36;100.00;96386.91;5029402;28;20032;-62
2022/11/21 02:02:39;;;;;;;1.85;0.43;;;4.20;99.90;;;3.28;100.00;96377.56;5029495;28;20043;-62
2022/11/21 02:05:08;;;;;;;2.83;0.50;;;4.10;99.90;;;3.14;100.00;96346.63;5029882;28;20060;-61
2022/11/21 02:07:39;;;;;;;2.28;0.45;;;4.10;99.90;;;3.13;100.00;96357.94;5024763;28;20037;-62
2022/11/21 02:10:06;;;;;;;0.82;0.22;;;4.10;99.90;;;3.23;100.00;96373.31;5031716;28;20021;-61
2022/11/21 02:12:40;;;;;;;1.27;0.40;;;4.10;99.90;;;3.26;100.00;96374.97;5031288;28;20033;-61
2022/11/21 02:15:07;;;;;;;2.42;0.50;;;4.10;99.90;;;3.25;100.00;96374.13;5031823;28;20044;-62
2022/11/21 02:17:33;;;;;;;2.10;0.52;;;4.10;99.90;;;3.20;100.00;96362.97;5034970;28;20104;-61
2022/11/21 02:20:07;;;;;;;1.92;0.55;;;4.10;99.90;;;3.24;100.00;96366.34;5033067;28;20037;-61
2022/11/21 02:23:11;;;;;;;1.52;0.57;;;4.10;99.90;;;3.19;100.00;96363.84;5048315;28;20037;-62
2022/11/21 02:25:41;;;;;;;5.10;0.80;;;4.10;99.90;;;3.16;100.00;96357.84;5031198;28;20052;-62
2022/11/21 02:28:10;;;;;;;1.58;0.50;;;4.00;99.90;;;3.25;100.00;96376.75;5029904;28;20033;-61
2022/11/21 02:30:39;;;;;;;1.77;0.70;;;4.10;99.90;;;3.23;100.00;96377.66;5027434;28;20079;-62
2022/11/21 02:33:06;;;;;;;0.82;0.50;;;4.10;99.90;;;3.21;100.00;96372.50;5033960;28;20175;-62
2022/11/21 02:35:32;;;;;;;1.80;0.50;;;4.10;99.90;;;3.06;100.00;96358.06;5029832;28;20079;-61
2022/11/21 02:38:08;;;;;;;2.40;0.30;;;4.00;99.90;;;3.13;100.00;96374.44;5030786;28;20724;-62
2022/11/21 02:40:41;;;;;;;0.85;0.40;;;4.00;99.90;;;3.05;100.00;96372.00;5031527;28;20524;-61
2022/11/21 02:43:16;;;;;;;;;;;3.90;99.90;;;2.94;100.00;96373.16;5024641;28;20159;-60
2022/11/21 02:45:45;;;;;;;0.60;0.35;;;3.80;99.90;;;2.80;100.00;96371.72;5024981;28;20011;-60
2022/11/21 02:48:11;;;;;;;2.00;0.40;;;3.70;99.90;;;2.83;100.00;96373.38;5028323;28;20218;-61
2022/11/21 02:50:40;;;;;;;1.80;0.38;;;3.70;99.90;;;2.84;100.00;96368.16;5026573;28;20047;-60
2022/11/21 02:53:10;;;;;;;0.95;0.30;;;3.70;99.90;;;2.84;100.00;96365.56;5026255;28;20150;-61
2022/11/21 02:55:37;;;;;;;1.85;0.40;;;3.70;99.90;;;2.92;100.00;96357.53;5020918;28;20033;-62
2022/11/21 02:58:04;;;;;;;0.20;0.20;;;3.70;99.90;;;2.90;100.00;96348.91;5025490;28;20040;-60
2022/11/21 03:00:30;;;;;;;1.10;0.32;;;3.70;99.90;;;2.89;100.00;96338.53;5026456;28;20072;-61
2022/11/21 03:02:55;;;;;;;0.63;0.30;;;3.70;99.90;;;2.88;100.00;96335.09;5029585;28;20036;-61
2022/11/21 03:05:22;;;;;;;1.05;0.35;;;3.70;99.90;;;2.81;100.00;96336.97;5021323;28;20041;-61
2022/11/21 03:07:48;;;;;;;0.65;0.30;;;3.70;99.90;;;2.81;100.00;96336.13;5020392;28;20025;-61
2022/11/21 03:10:14;;;;;;;1.05;0.38;;;3.60;99.90;;;2.70;100.00;96333.75;5028098;28;20031;-62
2022/11/21 03:12:42;;;;;;;0.65;0.35;;;3.60;99.90;;;2.72;100.00;96336.34;5027608;28;20040;-60
2022/11/21 03:15:11;;;;;;;1.05;0.40;;;3.50;99.90;;;2.57;100.00;96327.13;5029715;28;20025;-62
2022/11/21 03:17:38;;;;;;;1.30;0.40;;;3.50;99.90;;;2.55;100.00;96326.28;5031750;28;20044;-61
2022/11/21 03:20:05;;;;;;;0.70;0.28;;;3.40;99.90;;;2.51;100.00;96316.84;5030414;28;20132;-62
2022/11/21 03:22:30;;;;;;;0.55;0.30;;;3.40;99.90;;;2.61;100.00;96318.34;5029411;28;20040;-62
2022/11/21 03:24:56;;;;;;;0.25;0.25;;;3.40;99.90;;;2.64;100.00;96318.31;5027048;28;20044;-62
2022/11/21 03:31:03;;;;;;;0.20;0.20;;;3.50;99.90;;;2.69;100.00;96332.03;5013618;28;20052;-62
2022/11/21 03:33:29;;;;;;;0.57;0.30;;;3.50;99.90;;;2.72;100.00;96333.72;5030677;28;20037;-61
2022/11/21 03:35:54;;;;;;;0.57;0.20;;;3.60;99.90;;;2.78;100.00;96330.97;5025574;28;20532;-62
2022/11/21 03:38:20;;;;;;;0.22;0.10;;;3.60;99.90;;;2.84;100.00;96333.44;5032151;28;20033;-61
2022/11/21 03:40:46;;;;;;;0.73;0.20;;;3.70;99.90;;;2.93;100.00;96321.97;5025409;28;20033;-62
2022/11/21 03:43:11;;;;;;;0.65;0.30;;;3.80;99.90;;;2.98;100.00;96325.28;5032764;28;20065;-62
2022/11/21 03:45:37;;;;;;;0.20;0.20;;;3.80;99.90;;;3.06;100.00;96336.41;5025198;28;20044;-62
2022/11/21 03:48:03;;;;;;;0.52;0.30;;;3.90;99.90;;;3.16;100.00;96339.63;5068838;22;20188;-39
2022/11/21 03:50:29;;;;;;;0.20;0.20;;;4.00;99.90;;;3.19;100.00;96332.56;5064709;28;20627;-39
2022/11/21 03:52:54;;;;;;;0.20;0.20;;;4.10;99.90;;;3.23;100.00;96329.03;5066422;28;20495;-39
2022/11/21 03:55:20;;;;;;;0.65;0.20;;;4.10;99.90;;;3.30;100.00;96331.47;5068753;28;20033;-39
2022/11/21 03:57:46;;;;;;;0.60;0.30;;;4.10;99.90;;;3.32;100.00;96330.53;5048998;28;20040;-39
2022/11/21 04:00:13;;;;;;;0.85;0.35;;;4.20;99.90;;;3.34;100.00;96325.28;5046512;28;20037;-39
2022/11/21 04:02:38;;;;;;;2.25;0.40;;;4.20;99.90;;;3.40;100.00;96336.41;5047027;28;20036;-39
2022/11/21 04:05:04;;;;;;;0.35;0.20;;;4.20;99.90;;;3.43;100.00;96341.53;5046828;28;20541;-39
2022/11/21 04:07:30;;;;;;;1.25;0.40;;;4.30;99.90;;;3.46;100.00;96331.94;5049160;28;20059;-39
2022/11/21 04:09:56;;;;;;;0.68;0.30;;;4.30;99.90;;;3.47;100.00;96333.66;5042981;28;20036;-39
2022/11/21 04:12:21;;;;;;;0.40;0.22;;;4.30;99.90;;;3.46;100.00;96327.56;5048650;28;20036;-39
2022/11/21 04:14:47;;;;;;;1.02;0.30;;;4.30;99.90;;;3.48;100.00;96330.97;5048775;28;20068;-39
2022/11/21 04:17:13;;;;;;;0.25;0.22;;;4.30;99.90;;;3.50;100.00;96333.56;5045765;28;20093;-39
2022/11/21 04:19:38;;;;;;;0.30;0.20;;;4.40;99.90;;;3.50;100.00;96325.72;5047282;28;20032;-39
2022/11/21 04:22:04;;;;;;;0.70;0.30;;;4.40;99.90;;;3.51;100.00;96319.63;5049067;28;20063;-39
2022/11/21 04:24:30;;;;;;;1.58;0.40;;;4.40;99.90;;;3.47;100.00;96318.88;5045701;28;20029;-39
2022/11/21 04:26:55;;;;;;;0.30;0.25;;;4.40;99.90;;;3.51;100.00;96323.09;5041608;28;20413;-39
2022/11/21 04:29:21;;;;;;;0.35;0.20;;;4.30;99.90;;;3.40;100.00;96304.28;5048531;28;20033;-39
2022/11/21 04:31:47;;;;;;;2.92;1.10;;;4.30;99.90;;;3.44;100.00;96311.97;5044134;28;20283;-39
2022/11/21 04:34:12;;;;;;;0.73;0.30;;;4.40;99.90;;;3.56;100.00;96330.81;5047229;28;20059;-39
2022/11/21 04:36:38;;;;;;;1.83;0.47;;;4.40;99.90;;;3.55;100.00;96331.69;5046374;28;20075;-39
2022/11/21 04:39:04;;;;;;;0.68;0.35;;;4.40;99.90;;;3.51;100.00;96315.28;5047187;28;20109;-39
2022/11/21 04:41:30;;;;;;;1.58;0.40;;;4.40;99.90;;;3.52;100.00;96324.81;5042330;28;20064;-39
2022/11/21 04:43:55;;;;;;;2.97;0.40;;;4.40;99.90;;;3.46;100.00;96306.72;5042327;28;20032;-39
2022/11/21 04:46:21;;;;;;;2.58;0.40;;;4.40;99.90;;;3.59;100.00;96328.13;5047030;28;20396;-38
2022/11/21 04:48:47;;;;;;;1.77;0.50;;;4.40;99.90;;;3.60;100.00;96332.44;5040043;28;20115;-40
2022/11/21 04:51:12;;;;;;;1.00;0.30;;;4.40;99.90;;;3.53;100.00;96316.09;5043047;28;20021;-39
2022/11/21 04:53:38;;;;;;;0.73;0.30;;;4.40;99.90;;;3.61;100.00;96331.53;5046633;28;20040;-39
2022/11/21 04:56:05;;;;;;;0.95;0.30;;;4.40;99.90;;;3.65;100.00;96330.56;5046433;28;20449;-39
2022/11/21 04:58:31;;;;;;;2.20;0.75;;;4.50;99.90;;;3.67;100.00;96333.13;5047272;28;20056;-39
2022/11/21 05:00:57;;;;;;;1.90;0.40;;;4.50;99.90;;;3.68;100.00;96322.66;5042366;28;20585;-39
2022/11/21 05:03:22;;;;;;;1.10;0.30;;;4.50;99.90;;;3.70;100.00;96320.88;5049671;28;20024;-39
2022/11/21 05:05:48;;;;;;;0.95;0.40;;;4.50;99.90;;;3.60;100.00;96296.78;5043082;28;20504;-39
2022/11/21 05:08:14;;;;;;;0.98;0.35;;;4.50;99.90;;;3.65;100.00;96309.69;5042660;28;20388;-39
2022/11/21 05:13:24;;;;;;;1.23;0.38;;;4.50;99.90;;;3.59;100.00;96325.53;5049787;28;20043;-39
2022/11/21 05:15:56;;;;;;;2.33;0.60;;;4.40;99.90;;;3.56;100.00;96313.41;5046627;28;20403;-39
2022/11/21 05:18:21;;;;;;;2.63;0.70;;;4.40;99.90;;;3.47;100.00;96303.22;5044306;28;20117;-39
2022/11/21 05:20:47;;;;;;;0.35;0.28;;;4.40;99.90;;;3.40;100.00;96315.56;5043181;28;20571;-40
2022/11/21 05:23:13;;;;;;;0.90;0.52;;;4.30;99.90;;;3.34;100.00;96323.53;5049329;28;20033;-40
2022/11/21 05:25:39;;;;;;;1.35;0.52;;;4.20;99.90;;;3.16;100.00;96301.41;5043274;28;20047;-39
2022/11/21 05:28:05;;;;;;;2.55;0.60;;;4.10;99.90;;;3.20;100.00;96321.28;5045214;28;20520;-39
2022/11/21 05:30:30;;;;;;;3.42;0.63;;;4.10;99.90;;;3.11;100.00;96324.13;5046154;28;20392;-40
2022/11/21 05:32:56;;;;;;;2.78;0.52;;;3.90;99.90;;;3.05;100.00;96324.25;5043299;28;20477;-39
2022/11/21 05:35:22;;;;;;;0.57;0.40;;;3.80;99.90;;;2.94;100.00;96334.06;5044920;28;20036;-39
2022/11/21 05:37:47;;;;;;;0.85;0.60;;;3.80;99.90;;;2.83;100.00;96329.13;5045406;28;20028;-39
2022/11/21 05:40:13;;;;;;;1.60;0.70;;;3.70;99.90;;;2.80;100.00;96324.84;5048035;28;21525;-39
2022/11/21 05:45:25;;;;;;;1.13;0.50;;;3.60;99.90;;;2.83;100.00;96344.75;5046091;28;20059;-39
2022/11/21 05:47:51;;;;;;;1.25;0.60;;;3.60;99.90;;;2.78;100.00;96342.28;5043996;28;20551;-39
2022/11/21 05:50:17;;;;;;;1.02;0.60;;;3.60;99.90;;;2.84;100.00;96341.28;5041670;28;20396;-39
2022/11/21 05:52:43;;;;;;;0.98;0.40;;;3.60;99.90;;;2.87;100.00;96346.38;5046967;28;20170;-40
2022/11/21 05:55:08;;;;;;;1.73;0.60;;;3.70;99.90;;;2.87;100.00;96362.00;5045798;28;20029;-39
2022/11/21 05:57:34;;;;;;;2.78;0.90;;;3.70;99.90;;;2.87;100.00;96354.19;5045526;28;20029;-39
2022/11/21 06:00:00;;;;;;;0.63;0.50;;;3.70;99.90;;;2.84;100.00;96356.88;5040303;28;20128;-39
2022/11/21 06:05:10;;;;;;;5.55;1.00;;;3.70;99.90;;;3.04;100.00;96348.59;5046149;28;20126;-39
2022/11/21 06:07:35;;;;;;;4.10;1.15;;;3.80;99.90;;;3.08;100.00;96339.81;5046759;28;20427;-40
2022/11/21 06:10:01;;;;;;;1.58;0.93;;;3.90;99.90;;;3.16;100.00;96337.88;5043202;28;20155;-39
2022/11/21 06:12:27;;;;;;;1.35;0.70;;;4.00;99.90;;;3.18;100.00;96341.31;5041858;28;20508;-39
2022/11/21 06:14:52;;;;;;;3.35;1.08;;;4.10;99.90;;;3.37;100.00;96348.66;5044101;28;20052;-40
2022/11/21 06:17:18;;;;;;;1.90;0.80;;;4.10;99.90;;;3.52;100.00;96342.22;5047065;28;20071;-39
2022/11/21 06:19:44;;;;;;;1.10;0.55;;;4.30;99.90;;;3.56;100.00;96346.44;5042532;28;20040;-39
2022/11/21 06:22:09;;;;;;;3.20;0.70;;;4.40;99.90;;;3.58;100.00;96348.09;5036520;28;20124;-39
2022/11/21 06:24:35;;;;;;;1.98;0.77;;;4.40;99.90;;;3.65;100.00;96350.56;5044809;28;20317;-39
2022/11/21 06:27:01;;;;;;;3.00;0.88;;;4.50;99.90;;;3.71;100.00;96353.84;5035807;28;20036;-39
2022/11/21 06:29:26;;;;;;;5.07;1.00;;;4.50;99.90;;;3.76;100.00;96353.75;5040465;28;20485;-39
2022/11/21 06:31:54;;;;;;;2.05;0.73;;;4.60;99.90;;;3.72;100.00;96347.75;5041009;28;20079;-39
2022/11/21 06:34:20;;;;;;;1.60;0.70;;;4.60;99.90;;;3.75;100.00;96352.00;5044972;28;20085;-39
2022/11/21 06:36:46;;;;;;;1.67;0.52;;;4.60;99.90;;;3.74;100.00;96355.53;5042619;28;20044;-39
2022/11/21 06:39:11;;;;;;;0.85;0.50;;;4.60;99.90;;;3.77;100.00;96351.09;5048104;28;20029;-39
2022/11/21 06:41:37;;;;;;;0.90;0.52;;;4.60;99.90;;;3.77;100.00;96351.09;5041696;28;20316;-39
2022/11/21 06:44:03;;;;;;;0.80;0.60;;;4.60;99.90;;;3.73;100.00;96346.00;5043865;28;20063;-39
2022/11/21 06:46:28;;;;;;;0.90;0.50;;;4.60;99.90;;;3.77;100.00;96348.50;5045208;28;20090;-39
2022/11/21 06:48:54;;;;;;;1.35;0.60;;;4.50;99.90;;;3.78;100.00;96357.16;5046224;28;20431;-39
2022/11/21 06:51:22;;;;;;;0.75;0.60;;;4.60;99.90;;;3.81;100.00;96359.69;5043611;28;20037;-39
2022/11/21 06:53:56;;;;;;;3.15;0.80;;;4.60;99.90;;;3.82;100.00;96359.66;5042941;28;20027;-39
2022/11/21 06:56:28;;;;;;;1.42;0.80;;;4.60;99.90;;;3.79;100.00;96369.31;5040956;28;20126;-38
2022/11/21 06:58:54;;;;;;;2.05;0.68;;;4.60;99.90;;;3.71;100.00;96371.25;5042613;28;20596;-38
2022/11/21 07:01:21;;;;;;;2.33;0.70;;;4.50;99.90;;;3.63;100.00;96364.50;5045105;28;20048;-37
2022/11/21 07:03:46;;;;;;;1.83;0.90;;;4.40;99.90;;;3.53;100.00;96364.75;5036876;28;20460;-39
2022/11/21 07:06:12;;;;;;;1.90;0.85;;;4.30;99.90;;;3.41;100.00;96372.00;5046922;28;20051;-39
2022/11/21 07:08:39;;;;;;;1.50;0.63;;;4.30;99.90;;;3.30;100.00;96362.72;5048668;28;20107;-39
2022/11/21 07:11:12;;;;;;;3.10;1.17;;;4.10;99.90;;;3.18;100.00;96366.50;5048678;28;20028;-39
2022/11/21 07:13:38;;;;;;;1.50;0.70;;;4.00;99.90;;;3.13;100.00;96360.56;5044511;28;20035;-39
2022/11/21 07:16:08;;;;;;;2.15;0.80;;;4.00;99.90;;;3.05;100.00;96361.59;5048718;28;20033;-38
2022/11/21 07:18:35;;;;;;;1.98;0.90;;;3.90;99.90;;;2.99;100.00;96360.88;5045411;28;20389;-38
2022/11/21 07:21:04;;;;;;;0.98;0.70;;;3.80;99.90;;;3.04;100.00;96366.84;5043135;28;20129;-39
2022/11/21 07:23:30;;;;;;;2.05;1.00;;;3.80;99.90;;;3.01;100.00;96356.47;5042447;28;20029;-39
2022/11/21 07:26:00;;;;;;;1.50;1.00;;;3.80;99.90;;;3.09;100.00;96358.91;5048367;28;20205;-38
2022/11/21 07:28:31;;;;;;;2.25;0.88;;;3.90;99.90;;;3.08;100.00;96359.81;5051065;28;20377;-38
2022/11/21 07:30:57;;;;;;;1.80;0.98;;;3.90;99.90;;;2.90;100.00;96337.66;5042570;28;20021;-39
2022/11/21 07:33:23;;;;;;;2.17;1.00;;;3.80;99.90;;;3.03;100.00;96349.47;5050977;28;20564;-39
2022/11/21 07:35:49;;;;;;;1.17;0.75;;;3.80;99.90;;;3.03;100.00;96357.28;5041275;28;20040;-39
2022/11/21 07:38:15;;;;;;;1.17;1.00;;;3.80;99.90;;;3.02;100.00;96353.84;5048240;28;20585;-38
2022/11/21 07:40:41;;;;;;;3.80;1.00;;;3.80;99.90;;;3.00;100.00;96349.56;5041014;28;20122;-38
2022/11/21 07:43:06;;;;;;;1.77;0.75;;;3.80;99.90;;;3.02;100.00;96350.38;5041761;28;20175;-38
2022/11/21 07:45:33;;;;;;;1.55;1.00;;;3.90;99.90;;;3.13;100.00;96348.38;5050863;28;20029;-38
2022/11/21 07:48:00;;;;;;;3.35;0.80;;;3.90;99.90;;;3.22;100.00;96352.50;5044436;28;20048;-38
2022/11/21 07:50:27;;;;;;;2.67;1.20;;;4.00;99.90;;;3.13;100.00;96334.50;5038779;28;20025;-38
2022/11/21 07:53:04;;;;;;;2.28;1.00;;;4.00;99.90;;;3.15;100.00;96335.31;5038030;28;20032;-39
2022/11/21 07:55:31;;;;;;;1.48;1.00;;;4.10;99.90;;;3.21;100.00;96356.00;5049560;28;20094;-39
2022/11/21 07:58:11;;;;;;;2.33;1.00;;;4.00;99.90;;;3.18;100.00;96358.69;5044186;28;20039;-38
2022/11/21 08:00:39;;;;;;;1.65;1.05;;;4.00;99.90;;;3.19;100.00;96361.25;5048642;28;20033;-38
2022/11/21 08:03:06;;;;;;;7.45;1.50;;;4.00;99.90;;;3.19;100.00;96363.84;5042245;28;20047;-39
2022/11/21 08:05:39;;;;;;;3.88;1.10;;;4.00;99.90;;;3.20;100.00;96362.97;5047345;28;20043;-39
2022/11/21 08:08:06;;;;;;;1.98;1.00;;;4.10;99.90;;;3.21;100.00;96361.19;5048681;28;20032;-38
2022/11/21 08:10:33;;;;;;;2.72;1.10;;;4.00;99.90;;;3.19;100.00;96363.84;5051710;22;20091;-62
2022/11/21 08:12:58;;;;;;;2.00;1.27;;;4.00;99.90;;;3.21;100.00;96366.41;5020987;28;20516;-62
2022/11/21 08:15:24;;;;;;;1.63;1.10;;;4.10;99.90;;;3.24;100.00;96368.97;5018603;28;20037;-62
2022/11/21 08:17:50;;;;;;;3.85;1.27;;;4.10;99.90;;;3.25;100.00;96363.72;5029771;28;20392;-61
2022/11/21 08:20:16;;;;;;;3.95;1.25;;;4.10;99.90;;;3.28;100.00;96349.75;5022261;28;20033;-61
2022/11/21 08:22:42;;;;;;;1.67;1.10;;;4.10;99.90;;;3.30;100.00;96342.72;5022366;28;20429;-62
2022/11/21 08:25:09;;;;;;;3.80;1.23;;;4.20;99.90;;;3.34;100.00;96347.00;5042916;23;20719;-38
2022/11/21 08:27:37;;;;;;;2.75;1.20;;;4.20;99.90;;;3.39;100.00;96345.13;5027384;28;20528;-38
2022/11/21 08:30:09;;;;;;;3.17;1.05;;;4.20;99.90;;;3.41;100.00;96342.47;5031096;28;20036;-38
2022/11/21 08:32:35;;;;;;;3.72;1.40;;;4.20;99.90;;;3.47;100.00;96342.31;5023853;28;20395;-38
2022/11/21 08:35:01;;;;;;;2.47;1.10;;;4.30;99.90;;;3.49;100.00;96343.13;5030957;28;20041;-39
2022/11/21 08:37:28;;;;;;;4.47;1.35;;;4.30;99.90;;;3.51;100.00;96341.34;5016724;28;20038;-38
2022/11/21 08:39:55;;;;;;;3.42;1.40;;;4.30;99.90;;;3.52;100.00;96342.22;5008445;28;20489;-37
2022/11/21 08:42:20;;;;;;;3.47;1.42;;;4.40;99.90;;;3.53;100.00;96342.16;5038249;22;20460;-38
2022/11/21 08:44:46;;;;;;;3.83;1.35;;;4.40;99.90;;;3.64;100.00;96344.47;5065528;28;20031;-37
2022/11/21 08:47:12;;;;;;;5.40;1.33;;;4.50;99.90;;;3.67;100.00;96341.78;5063051;28;20040;-37
2022/11/21 08:49:37;;;;;;;4.93;1.33;;;4.60;99.90;;;3.77;100.00;96347.63;5070973;28;20039;-37
2022/11/21 08:52:03;;;;;;;4.13;1.00;;;4.60;99.90;;;3.81;100.00;96354.47;5068375;28;20024;-37
2022/11/21 08:57:06;;;;;;;4.20;1.15;;;4.70;99.90;;;3.94;100.00;96337.56;5050312;28;20060;-61
2022/11/21 08:59:31;;;;;;;2.35;1.05;;;4.80;99.90;;;3.98;100.00;96336.63;5053122;28;20032;-61
2022/11/21 09:01:57;;;;;;;5.35;0.98;;;4.80;99.90;;;4.05;100.00;96339.03;5051561;28;20477;-61
2022/11/21 09:04:23;;;;;;;2.65;1.05;;;4.90;99.90;;;4.12;100.00;96340.59;5055377;28;20021;-61
2022/11/21 09:06:49;;;;;;;4.82;1.20;;;5.00;99.90;;;4.20;100.00;96336.84;5042875;28;20086;-61
2022/11/21 09:09:14;;;;;;;2.78;1.00;;;5.00;99.90;;;4.26;100.00;96332.38;5049494;28;20036;-62
2022/11/21 09:11:40;;;;;;;3.78;0.90;;;5.10;99.90;;;4.35;100.00;96326.88;5051833;28;20314;-62
2022/11/21 09:19:34;;;;;;;4.70;1.02;;;5.30;99.90;;;4.42;100.00;96317.97;5051442;28;20606;-62
2022/11/21 09:22:00;;;;;;;1.77;1.00;;;5.30;99.90;;;4.48;100.00;96319.53;5049794;28;20028;-59
2022/11/21 09:24:25;;;;;;;2.72;1.08;;;5.30;99.90;;;4.52;100.00;96327.22;5049630;28;20052;-59
2022/11/21 09:26:51;;;;;;;4.05;1.48;;;5.40;99.90;;;4.55;100.00;96318.44;5044696;28;20395;-59
2022/11/21 09:29:17;;;;;;;2.67;0.88;;;5.40;99.90;;;4.66;100.00;96332.00;5045424;28;20108;-61
2022/11/21 09:31:43;;;;;;;5.78;1.30;;;5.50;99.90;;;4.77;100.00;96329.06;5045016;28;20445;-58
2022/11/21 09:34:10;;;;;;;4.25;1.08;;;5.50;99.90;;;4.89;100.00;96317.41;5051303;28;20029;-59
2022/11/21 09:36:36;;;;;;;5.53;1.15;;;5.70;99.90;;;5.05;100.00;96328.22;5047271;28;20153;-59
2022/11/21 09:39:02;;;;;;;3.65;1.10;;;5.80;99.90;;;5.32;100.00;96323.84;5045545;28;20044;-58
2022/11/21 09:42:06;;;;;;;6.53;1.35;;;6.10;99.90;;;5.77;100.00;96325.78;5049415;28;20737;-58
2022/11/21 09:45:02;;;;;;;10.10;1.20;;;6.50;99.90;;;6.02;100.00;96331.03;5047774;28;20084;-58
2022/11/21 09:47:36;;;;;;;7.25;1.00;;;6.70;99.90;;;6.18;100.00;96327.88;5046566;28;20130;-57
2022/11/21 09:50:24;;;;;;;2.90;0.85;;;6.90;99.90;;;6.28;100.00;96334.47;5049446;28;20415;-58
2022/11/21 09:53:01;;;;;;;4.80;1.30;;;7.00;99.90;;;6.39;100.00;96323.59;5034466;28;20115;-58
2022/11/21 09:55:48;;;;;;;2.97;1.00;;;7.20;99.90;;;6.44;100.00;96319.91;5047433;28;20532;-58
2022/11/21 09:59:14;;;;;;;5.97;1.38;;;7.20;99.90;;;6.47;100.00;96318.94;5027666;28;20029;-58
2022/11/21 10:01:40;;;;;;;6.70;1.20;;;7.30;99.90;;;6.44;100.00;96306.81;4949421;28;20113;-57
2022/11/21 10:04:06;;;;;;;4.38;1.27;;;7.30;99.90;;;6.47;100.00;96303.22;4951348;28;20051;-57
2022/11/21 10:06:53;;;;;;;6.07;0.95;;;7.30;99.90;;;6.59;100.00;96296.66;5003627;28;20475;-57
2022/11/21 10:09:30;;;;;;;3.55;1.17;;;7.40;99.90;;;6.63;100.00;96275.50;5046429;28;20037;-57
2022/11/21 10:12:36;;;;;;;3.70;1.15;;;7.50;99.90;;;6.60;100.00;96272.16;5054263;28;20218;-58
2022/11/21 10:15:31;;;;;;;4.43;1.38;;;7.40;99.90;;;6.52;100.00;96263.75;5031595;28;20590;-57
2022/11/21 10:18:36;;;;;;;10.00;3.13;;;7.40;99.90;;;6.59;100.00;96266.06;5047748;28;20032;-57
2022/11/21 10:21:04;;;;;;;8.70;1.50;;;7.40;99.90;;;6.80;100.00;96260.88;5051682;28;20037;-57
2022/11/21 10:23:50;;;;;;;2.95;1.15;;;7.60;99.90;;;6.97;100.00;96262.84;5045797;28;20388;-57
2022/11/21 10:26:55;;;;;;;2.67;0.90;;;7.70;99.90;;;7.03;100.00;96250.34;5029649;28;20032;-57
2022/11/21 10:29:45;;;;;;;3.88;1.00;;;7.80;99.90;;;7.10;100.00;96239.59;4987746;28;20057;-57
2022/11/21 10:32:23;;;;;;;3.60;0.93;;;7.90;99.90;;;7.17;100.00;96235.78;5026939;28;20056;-58
2022/11/21 10:34:54;;;;;;;4.57;1.00;;;7.90;99.90;;;7.33;100.00;96231.59;5049715;28;20562;-57
2022/11/21 10:37:36;;;;;;;5.13;1.00;;;8.00;99.90;;;7.49;100.00;96238.81;5045306;28;20483;-59
2022/11/21 10:40:12;;;;;;;4.72;1.20;;;8.20;99.90;;;7.56;100.00;96232.38;5053568;28;20662;-57
2022/11/21 10:42:56;;;;;;;3.30;0.82;;;8.30;99.90;;;7.66;100.00;96231.03;5050690;28;20043;-57
2022/11/21 10:45:23;;;;;;;3.78;1.02;;;8.40;99.90;;;7.80;100.00;96233.91;5035790;28;20091;-57
2022/11/21 10:47:51;;;;;;;5.43;1.30;;;8.50;99.90;;;7.89;100.00;96223.94;5043848;28;20103;-57
2022/11/21 10:50:45;;;;;;;3.70;1.05;;;8.50;99.90;;;8.03;100.00;96222.38;5049051;28;20039;-57
2022/11/21 10:56:18;;;;;;;5.03;1.10;;;8.90;99.90;;;8.31;100.00;96212.38;5013950;28;20044;-57